Thetford, Vermont
Current Conditions -  °F | °C
As of 11:23 AM on Tuesday 21 Oct 2014 (Local Time) from KLEB Reporting Station
Light Rain Light Rain  
Wind Chill: 49°   Ceiling: 2800
Heat Index: 49°   Visibility: 6mi
Dew Point: 44°   Wind: 3mph
Humidity: 83%   Direction: 350°N
Pressure: 29.99"   Gusts: NA
Location:  43.82°N, 72.23°W
Report Text: KLEB 211523Z 35003KT 6SM -RA SCT020 BKN028 OVC036 09/07 A2999 RMK AO2 P0002 T00940067
Loading
Personal Weather Stations






























Interactive Weather Map
Tropical Storm Tracking
New forecast layout! Learn more

10-Day Weather Forecast

Advertisements
Track Severe Weather on mobile